This is the latest recevied weather packets stored in our database for station/object E23XBQ-1. If no packets are shown the sender has not sent any weather packets the latest 1 day(s).
| Time | Temp. | Humidity | Pressure | Rain* | Wind** | Luminosity | Snow |
|---|---|---|---|---|---|---|---|
| 1778108291 | 23.89° C | 99% | 972 hPa | - | - | 0 W/m² | - |
| 1778105166 | 24.44° C | 99% | 971 hPa | - | - | 0 W/m² | - |
| 1778103651 | 24.44° C | 99% | 971 hPa | - | - | 0 W/m² | - |
| 1778101151 | 24.44° C | 99% | 971 hPa | - | - | 0 W/m² | - |
| 1778100527 | 24.44° C | 99% | 971 hPa | - | - | 0 W/m² | - |
| 1778099902 | 24.44° C | 99% | 971 hPa | - | - | 0 W/m² | - |
| 1778097470 | 25.56° C | 99% | 970 hPa | - | - | 0 W/m² | - |
| 1778096221 | 25.56° C | 99% | 970 hPa | - | - | 0 W/m² | - |
| 1778095596 | 25° C | 99% | 970 hPa | - | - | 0 W/m² | - |
| 1778093096 | 24.44° C | 99% | 970 hPa | - | - | 0 W/m² | - |
| 1778092470 | 25° C | 99% | 971 hPa | - | - | 0 W/m² | - |
| 1778091845 | 25° C | 99% | 971 hPa | - | - | 0 W/m² | - |
| 1778088722 | 25.56° C | 99% | 971 hPa | - | - | 0 W/m² | - |
| 1778085599 | 25.56° C | 99% | 971 hPa | - | - | 0 W/m² | - |
| 1778084974 | 25° C | 99% | 971 hPa | - | - | 0 W/m² | - |
| 1778083100 | 26.11° C | 93% | 971 hPa | - | - | 0 W/m² | - |
| 1778081851 | 25° C | 99% | 971 hPa | - | - | 0 W/m² | - |
| 1778080602 | 25.56° C | 99% | 971 hPa | - | - | 0 W/m² | - |
| 1778078508 | 26.67° C | 98% | 971 hPa | - | - | 0 W/m² | - |
| 1778075556 | 25.56° C | 99% | 970 hPa | - | - | 0 W/m² | - |
| 1778074932 | 26.67° C | 99% | 970 hPa | - | - | 0 W/m² | - |
| 1778074307 | 26.67° C | 99% | 970 hPa | - | - | 0 W/m² | - |
| 1778073682 | 28.33° C | 91% | 969 hPa | - | - | 0 W/m² | - |
| 1778073057 | 30.56° C | 90% | 969 hPa | - | - | 0 W/m² | - |
| 1778072430 | 30° C | 99% | 968 hPa | - | - | 0 W/m² | - |
* Rain since midnight (hover to see other rain measurements)
** Current wind speed in m/s (hover to see current wind gust speed)